createdAt,value
2018-08-04T00:02:07.838Z,99178.20
2018-08-04T00:04:37.332Z,99178.30
2018-08-04T00:07:07.348Z,99183.28
2018-08-04T00:09:36.545Z,99182.56
2018-08-04T00:17:21.913Z,99176.73
2018-08-04T03:13:06.753Z,99166.20
2018-08-04T03:15:36.322Z,99170.56
2018-08-04T03:18:07.342Z,99165.67
2018-08-04T03:20:38.145Z,99169.63
2018-08-04T03:23:07.693Z,99171.09
2018-08-04T03:25:37.703Z,99168.03
2018-08-04T03:28:07.079Z,99162.55
2018-08-04T03:30:36.672Z,99170.03
2018-08-04T03:33:06.503Z,99164.36
2018-08-04T03:35:37.374Z,99167.64
2018-08-04T03:38:07.284Z,99168.06
2018-08-04T03:40:36.669Z,99166.03
2018-08-04T03:43:05.907Z,99166.35
2018-08-04T03:45:34.981Z,99170.59
2018-08-04T03:48:04.122Z,99165.84
2018-08-04T03:50:34.402Z,99171.55
2018-08-04T03:53:03.760Z,99166.48
2018-08-04T03:55:32.466Z,99168.86
2018-08-04T03:58:01.204Z,99167.63
2018-08-04T04:00:31.569Z,99165.84
2018-08-04T04:03:00.343Z,99050.14
2018-08-04T04:05:29.051Z,99175.91
2018-08-04T04:07:58.334Z,99175.91
2018-08-04T04:10:27.527Z,99179.15
2018-08-04T04:12:56.315Z,99183.81
2018-08-04T04:15:25.002Z,99181.34
2018-08-04T04:17:54.607Z,99180.87
2018-08-04T04:20:23.296Z,99183.14
2018-08-04T04:22:52.850Z,99184.17
2018-08-04T04:25:22.056Z,99179.48
2018-08-04T04:27:51.280Z,99185.33
2018-08-04T04:30:20.806Z,99182.26
2018-08-04T04:32:49.581Z,99186.86
2018-08-04T04:35:18.684Z,99189.74
2018-08-04T04:37:48.095Z,99187.81
2018-08-04T04:40:17.486Z,99189.66
2018-08-04T04:42:46.789Z,99189.88
2018-08-04T04:45:15.677Z,99190.55
2018-08-04T04:47:44.445Z,99191.59
2018-08-04T04:50:13.774Z,99192.30
2018-08-04T04:52:42.962Z,99193.52
2018-08-04T04:55:11.653Z,99197.59
2018-08-04T04:57:40.319Z,99195.31
2018-08-04T05:00:09.064Z,99197.58
2018-08-04T05:02:38.188Z,99203.09
2018-08-04T05:05:08.621Z,99200.62
2018-08-04T05:07:37.366Z,99208.66
2018-08-04T05:10:07.270Z,99208.56
2018-08-04T05:12:39.117Z,99200.11
2018-08-04T05:15:08.494Z,99208.94
2018-08-04T05:17:37.179Z,99203.52
2018-08-04T05:20:06.873Z,99197.33
2018-08-04T05:22:37.322Z,99200.63
2018-08-04T05:25:07.196Z,99203.36
2018-08-04T05:27:37.138Z,99198.71
2018-08-04T05:30:06.946Z,99198.83
2018-08-04T05:32:36.731Z,99201.09
2018-08-04T05:35:05.461Z,99201.76
2018-08-04T05:37:34.324Z,99197.36
2018-08-04T05:40:03.076Z,99199.46
2018-08-04T05:42:31.705Z,99198.60
2018-08-04T05:45:00.497Z,99198.95
2018-08-04T05:47:30.300Z,99197.69
2018-08-04T05:49:58.988Z,99201.76
2018-08-04T05:52:27.637Z,99201.19
2018-08-04T05:54:56.645Z,99203.78
2018-08-04T05:57:25.997Z,99206.03
2018-08-04T05:59:55.029Z,99195.14
2018-08-04T06:02:24.151Z,99194.22
2018-08-04T06:04:53.705Z,99193.95
2018-08-04T06:07:22.407Z,99200.66
2018-08-04T06:09:52.208Z,99198.25
2018-08-04T06:12:23.306Z,99195.24
2018-08-04T06:14:52.072Z,99193.91
2018-08-04T06:17:21.857Z,99198.31
2018-08-04T06:19:50.585Z,99191.78
2018-08-04T06:22:20.080Z,99199.27
2018-08-04T06:24:49.322Z,99195.52
2018-08-04T06:27:18.084Z,99200.89
2018-08-04T06:29:46.699Z,99191.72
2018-08-04T06:32:15.328Z,99183.86
2018-08-04T06:34:44.040Z,99194.94
2018-08-04T06:37:13.543Z,99187.03
2018-08-04T06:39:43.628Z,99190.02
2018-08-04T06:42:13.444Z,99193.64
2018-08-04T06:44:42.132Z,99192.03
2018-08-04T06:47:10.740Z,99187.84
2018-08-04T06:49:39.985Z,99197.73
2018-08-04T06:52:08.873Z,99194.11
2018-08-04T06:54:37.601Z,99193.77
2018-08-04T06:57:06.249Z,99196.06
2018-08-04T06:59:34.877Z,99191.77
2018-08-04T07:02:03.496Z,99170.13
2018-08-04T07:04:34.245Z,99192.09
2018-08-04T07:07:03.242Z,99201.77
2018-08-04T07:09:33.255Z,99199.73
2018-08-04T07:12:02.042Z,99203.65
2018-08-04T07:14:32.147Z,99195.42
2018-08-04T07:17:00.778Z,99197.95
2018-08-04T07:19:29.483Z,99189.14
2018-08-04T07:21:58.089Z,99187.63
2018-08-04T07:24:26.717Z,99185.44
2018-08-04T07:26:56.827Z,99188.31
2018-08-04T07:29:25.535Z,99195.42
2018-08-04T07:31:54.257Z,99191.81
2018-08-04T07:34:23.175Z,99190.06
2018-08-04T07:36:52.961Z,99190.03
2018-08-04T07:39:21.609Z,99196.50
2018-08-04T07:41:50.236Z,99198.22
2018-08-04T07:44:19.424Z,99200.34
2018-08-04T07:46:48.593Z,99194.55
2018-08-04T07:49:18.219Z,99198.20
2018-08-04T07:51:47.049Z,99206.34
2018-08-04T07:54:15.697Z,99200.41
2018-08-04T07:56:44.229Z,99203.30
2018-08-04T07:59:12.885Z,99211.28
2018-08-04T08:01:41.466Z,99211.30
2018-08-04T08:04:10.203Z,99197.30
2018-08-04T08:06:38.919Z,99191.44
2018-08-04T08:09:09.252Z,99189.39
2018-08-04T08:11:38.476Z,99182.94
2018-08-04T08:14:07.843Z,99187.09
2018-08-04T08:16:38.025Z,99183.72
2018-08-04T08:19:08.677Z,99188.89
2018-08-04T08:21:37.952Z,99197.29
2018-08-04T08:24:07.818Z,99194.81
2018-08-04T08:26:36.924Z,99190.20
2018-08-04T08:29:06.495Z,99187.21
2018-08-04T08:31:36.624Z,99183.20
2018-08-04T08:35:13.658Z,99183.23
2018-08-04T08:37:43.410Z,99181.89
2018-08-04T08:40:13.126Z,99186.43
2018-08-04T08:42:43.540Z,99178.27
2018-08-04T08:45:13.321Z,99190.41
2018-08-04T08:47:45.398Z,99184.05
2018-08-04T08:50:16.364Z,99187.60
2018-08-04T08:52:46.056Z,99188.00
2018-08-04T08:55:16.570Z,99188.31
2018-08-04T08:57:45.215Z,99185.72
2018-08-04T09:00:14.846Z,99191.33
2018-08-04T09:03:40.371Z,99188.62
2018-08-04T09:06:10.368Z,99182.22
2018-08-04T09:08:40.984Z,99187.27
2018-08-04T09:11:12.712Z,99186.25
2018-08-04T09:13:44.067Z,99189.34
2018-08-04T09:16:12.975Z,99191.42
2018-08-04T09:18:42.990Z,99183.30
2018-08-04T09:21:12.909Z,99186.81
2018-08-04T09:23:41.796Z,99182.05
2018-08-04T09:26:11.610Z,99180.84
2018-08-04T09:28:40.452Z,99179.39
2018-08-04T09:31:10.393Z,99168.16
2018-08-04T09:33:43.954Z,99171.02
2018-08-04T09:36:13.069Z,99168.05
2018-08-04T09:38:43.409Z,99172.03
2018-08-04T09:41:12.177Z,99169.81
2018-08-04T09:43:40.982Z,99178.08
2018-08-04T09:46:09.771Z,99168.94
2018-08-04T09:48:39.941Z,99167.11
2018-08-04T09:51:08.864Z,99173.23
2018-08-04T09:53:38.822Z,99166.34
2018-08-04T09:56:09.371Z,99167.25
2018-08-04T09:58:39.926Z,98901.02
2018-08-04T10:01:14.303Z,99162.69
2018-08-04T10:03:43.319Z,99156.66
2018-08-04T10:06:14.148Z,99159.72
2018-08-04T10:08:44.161Z,99157.09
2018-08-04T10:11:13.244Z,99151.47
2018-08-04T10:13:42.831Z,99150.17
2018-08-04T10:16:13.329Z,99161.50
2018-08-04T10:18:52.953Z,99155.43
2018-08-04T10:21:21.659Z,99161.29
2018-08-04T10:23:50.862Z,99153.30
2018-08-04T10:26:19.698Z,99153.14
2018-08-04T10:28:49.416Z,99151.16
2018-08-04T10:31:18.126Z,99150.81
2018-08-04T10:33:48.084Z,99154.28
2018-08-04T10:36:18.354Z,99159.19
2018-08-04T10:38:47.883Z,99155.16
2018-08-04T10:41:16.568Z,99150.45
2018-08-04T10:43:45.249Z,99156.80
2018-08-04T10:46:14.389Z,99155.30
2018-08-04T10:48:44.170Z,99162.95
2018-08-04T10:51:14.054Z,99163.27
2018-08-04T10:53:43.669Z,99166.03
2018-08-04T10:56:13.383Z,99155.86
2018-08-04T10:58:41.857Z,99165.02
2018-08-04T11:01:10.440Z,99168.53
2018-08-04T11:03:39.986Z,99162.94
2018-08-04T11:06:10.568Z,99170.92
2018-08-04T11:08:40.365Z,99171.69
2018-08-04T11:11:09.991Z,99166.90
2018-08-04T11:13:40.115Z,99167.21
2018-08-04T11:16:09.164Z,99165.64
2018-08-04T11:18:39.957Z,99164.50
2018-08-04T11:21:09.756Z,99164.54
2018-08-04T11:23:39.037Z,99166.28
2018-08-04T11:26:08.748Z,99160.42
2018-08-04T11:28:38.930Z,99154.52
2018-08-04T11:31:08.211Z,99149.92
2018-08-04T11:33:36.976Z,99148.52
2018-08-04T11:36:06.073Z,99150.67
2018-08-04T11:38:36.618Z,99148.94
2018-08-04T11:41:06.092Z,99151.58
2018-08-04T11:43:37.788Z,99145.84
2018-08-04T11:46:06.639Z,99146.77
2018-08-04T11:48:35.773Z,99147.03
2018-08-04T11:51:04.815Z,99146.55
2018-08-04T11:53:34.739Z,99144.38
2018-08-04T11:56:03.374Z,99144.97
2018-08-04T11:58:32.698Z,99149.91
2018-08-04T12:01:02.242Z,99134.88
2018-08-04T12:03:31.591Z,99134.58
2018-08-04T12:06:01.605Z,99137.86
2018-08-04T12:08:31.771Z,99130.98
2018-08-04T12:11:03.520Z,99130.72
2018-08-04T12:13:33.478Z,99117.82
2018-08-04T12:16:03.397Z,99124.26
2018-08-04T12:18:32.323Z,99117.55
2018-08-04T12:21:03.137Z,99125.89
2018-08-04T12:23:33.610Z,99137.94
2018-08-04T12:26:03.416Z,99137.56
2018-08-04T12:28:34.030Z,99134.03
2018-08-04T12:31:03.247Z,99121.42
2018-08-04T12:33:33.383Z,99135.53
2018-08-04T12:36:02.629Z,99128.17
2018-08-04T12:38:33.428Z,99130.98
2018-08-04T12:41:03.682Z,99131.77
2018-08-04T12:43:32.231Z,99124.02
2018-08-04T12:46:03.312Z,99124.40
2018-08-04T12:48:32.148Z,99117.39
2018-08-04T12:51:02.133Z,99118.31
2018-08-04T12:53:32.115Z,99120.46
2018-08-04T12:56:01.949Z,99121.48
2018-08-04T12:58:30.693Z,99116.25
2018-08-04T13:01:01.667Z,99108.19
2018-08-04T13:03:33.004Z,99113.06
2018-08-04T13:06:02.854Z,99109.55
2018-08-04T13:08:33.912Z,99101.97
2018-08-04T13:11:02.539Z,99101.72
2018-08-04T13:13:31.869Z,99098.95
2018-08-04T13:16:02.559Z,99099.73
2018-08-04T13:18:31.335Z,99102.25
2018-08-04T13:21:01.595Z,99103.73
2018-08-04T13:23:30.382Z,99099.78
2018-08-04T13:25:59.621Z,99092.98
2018-08-04T13:28:28.339Z,99083.94
2018-08-04T13:30:58.205Z,99087.03
2018-08-04T13:33:27.720Z,99090.77
2018-08-04T13:35:58.392Z,99080.34
2018-08-04T13:38:27.702Z,99092.71
2018-08-04T13:40:56.276Z,99088.13
2018-08-04T13:43:24.986Z,99084.66
2018-08-04T13:45:55.356Z,99075.08
2018-08-04T13:48:25.028Z,99078.68
2018-08-04T13:50:54.685Z,99073.02
2018-08-04T13:53:27.222Z,99069.72
2018-08-04T13:55:58.481Z,99074.58
2018-08-04T13:58:33.980Z,99060.67
2018-08-04T14:01:03.591Z,99061.27
2018-08-04T14:03:34.551Z,99067.48
2018-08-04T14:06:03.599Z,99046.70
2018-08-04T14:09:06.032Z,99068.52
2018-08-04T14:11:36.157Z,99065.80
2018-08-04T14:14:06.763Z,99065.56
2018-08-04T14:16:36.233Z,99060.45
2018-08-04T14:19:06.999Z,99060.66
2018-08-04T14:21:36.957Z,99053.48
2018-08-04T14:24:07.340Z,99054.42
2018-08-04T14:26:37.151Z,99059.66
2018-08-04T14:29:07.977Z,99061.25
2018-08-04T14:31:37.779Z,99054.88
2018-08-04T14:34:10.207Z,99050.39
2018-08-04T14:36:44.080Z,99061.30
2018-08-04T14:39:14.673Z,99052.03
2018-08-04T14:41:43.816Z,99056.72
2018-08-04T14:44:12.721Z,99059.84
2018-08-04T14:46:44.172Z,99054.58
2018-08-04T14:49:14.149Z,99052.32
2018-08-04T14:51:43.625Z,99055.19
2018-08-04T14:54:14.756Z,99053.16
2018-08-04T14:56:49.027Z,99054.58
2018-08-04T14:59:32.143Z,99058.42
2018-08-04T15:02:07.814Z,99045.72
2018-08-04T15:04:39.607Z,99051.69
2018-08-04T15:07:10.690Z,99050.08
2018-08-04T15:12:16.892Z,99050.56
2018-08-04T15:14:49.564Z,99044.56
2018-08-04T15:17:28.585Z,99018.87
2018-08-04T15:20:07.261Z,99038.81
2018-08-04T15:22:39.023Z,99034.06
2018-08-04T15:25:10.393Z,99032.91
2018-08-04T15:27:47.689Z,99039.97
2018-08-04T15:30:19.243Z,99026.52
2018-08-04T15:32:51.785Z,99029.12
2018-08-04T15:35:27.581Z,99024.63
2018-08-04T15:37:59.434Z,99027.95
2018-08-04T15:40:30.177Z,99025.11
2018-08-04T15:42:59.371Z,99025.51
2018-08-04T15:45:30.496Z,99028.00
2018-08-04T15:48:05.962Z,99036.52
2018-08-04T15:50:37.710Z,99026.78
2018-08-04T15:53:12.412Z,99031.70
2018-08-04T15:55:48.058Z,99027.67
2018-08-04T15:58:26.562Z,99032.41
2018-08-04T16:00:56.705Z,99035.19
2018-08-04T16:03:26.655Z,99034.91
2018-08-04T16:06:01.715Z,99033.47
2018-08-04T16:08:46.226Z,99025.95
2018-08-04T16:11:50.910Z,99029.42
2018-08-04T16:14:23.057Z,99036.48
2018-08-04T16:16:59.437Z,99031.36
2018-08-04T16:19:46.210Z,99029.59
2018-08-04T16:22:23.857Z,99027.53
2018-08-04T16:24:59.818Z,99028.97
2018-08-04T16:27:42.598Z,99029.52
2018-08-04T16:30:12.510Z,99021.42
2018-08-04T16:32:44.396Z,99027.77
2018-08-04T16:35:19.968Z,99026.16
2018-08-04T16:37:54.125Z,99024.88
2018-08-04T16:40:23.969Z,99025.45
2018-08-04T16:43:00.112Z,99021.66
2018-08-04T16:45:34.390Z,99024.91
2018-08-04T16:48:03.916Z,99023.55
2018-08-04T16:50:33.727Z,99020.45
2018-08-04T16:53:04.358Z,99019.55
2018-08-04T16:55:37.856Z,99023.38
2018-08-04T16:58:07.371Z,99024.68
2018-08-04T17:00:36.150Z,99024.18
2018-08-04T17:03:08.216Z,99027.20
2018-08-04T17:05:56.562Z,99021.52
2018-08-04T17:18:03.318Z,99031.98
2018-08-04T18:54:15.876Z,99102.58
2018-08-04T18:56:48.324Z,99096.23
2018-08-04T18:59:26.115Z,99104.97
2018-08-04T19:02:02.672Z,99104.93
2018-08-04T19:04:34.548Z,99112.07
2018-08-04T19:07:20.091Z,99120.00
2018-08-04T19:11:06.386Z,99116.08
2018-08-04T19:16:27.515Z,99123.36
2018-08-04T19:24:09.015Z,99129.38
2018-08-04T19:26:59.666Z,99134.45
2018-08-04T19:29:40.407Z,99137.70
2018-08-04T19:35:36.278Z,99148.56
2018-08-04T19:38:20.360Z,99148.70
2018-08-04T19:50:53.577Z,99144.00
2018-08-04T19:57:52.726Z,99155.61
2018-08-04T20:00:53.777Z,99156.51
2018-08-04T20:03:43.170Z,99159.38
2018-08-04T20:22:14.108Z,99179.08
2018-08-04T20:37:41.226Z,99176.27
2018-08-04T20:40:11.645Z,99181.72
2018-08-04T20:42:44.214Z,99186.22
2018-08-04T20:45:34.866Z,99181.46
2018-08-04T20:48:20.173Z,99187.62
2018-08-04T20:50:51.747Z,99195.05
2018-08-04T20:53:22.821Z,99200.75
2018-08-04T20:55:53.238Z,99203.25
2018-08-04T21:04:00.186Z,99195.42
2018-08-04T21:07:03.992Z,99204.02
2018-08-04T21:10:02.051Z,99208.59
2018-08-04T21:12:33.672Z,99208.39
2018-08-04T21:15:06.541Z,99206.14
2018-08-04T21:17:38.988Z,99210.77
2018-08-04T21:20:52.863Z,99210.33
2018-08-04T21:33:41.520Z,99210.13
2018-08-04T21:38:56.748Z,99215.61
